sensor_id;sensor_type;location;lat;lon;timestamp;pressure;altitude;pressure_sealevel;temperature;humidity
57056;BME280;42945;51.718;5.324;2023-02-10T00:03:11;103456.97;;;-0.49;100.00
57056;BME280;42945;51.718;5.324;2023-02-10T00:09:00;103429.69;;;-0.61;100.00
57056;BME280;42945;51.718;5.324;2023-02-10T00:14:48;103311.53;;;-1.20;100.00
57056;BME280;42945;51.718;5.324;2023-02-10T00:20:37;103410.34;;;-0.69;100.00
57056;BME280;42945;51.718;5.324;2023-02-10T00:26:26;103407.78;;;-0.67;100.00
57056;BME280;42945;51.718;5.324;2023-02-10T00:32:15;103438.28;;;-0.65;100.00
57056;BME280;42945;51.718;5.324;2023-02-10T00:38:05;103395.34;;;-0.76;100.00
57056;BME280;42945;51.718;5.324;2023-02-10T00:43:53;103299.47;;;-1.45;100.00
57056;BME280;42945;51.718;5.324;2023-02-10T00:49:42;103195.69;;;-2.18;100.00
57056;BME280;42945;51.718;5.324;2023-02-10T00:55:30;103404.91;;;-0.76;100.00
57056;BME280;42945;51.718;5.324;2023-02-10T01:01:17;103311.41;;;-1.52;100.00
57056;BME280;42945;51.718;5.324;2023-02-10T01:07:08;103389.97;;;-0.82;100.00
57056;BME280;42945;51.718;5.324;2023-02-10T01:12:56;103429.00;;;-0.84;100.00
57056;BME280;42945;51.718;5.324;2023-02-10T01:18:45;103371.69;;;-1.65;100.00
57056;BME280;42945;51.718;5.324;2023-02-10T01:24:32;103547.97;;;-0.30;100.00
57056;BME280;42945;51.718;5.324;2023-02-10T01:30:21;103335.94;;;-1.71;100.00
57056;BME280;42945;51.718;5.324;2023-02-10T01:36:10;103432.41;;;-0.86;100.00
57056;BME280;42945;51.718;5.324;2023-02-10T01:42:00;103055.41;;;-1.24;100.00
57056;BME280;42945;51.718;5.324;2023-02-10T01:47:50;103528.50;;;-0.41;100.00
57056;BME280;42945;51.718;5.324;2023-02-10T01:53:39;103444.38;;;-0.91;100.00
57056;BME280;42945;51.718;5.324;2023-02-10T01:59:35;103412.84;;;-1.01;100.00
57056;BME280;42945;51.718;5.324;2023-02-10T02:05:34;103309.72;;;-1.77;100.00
57056;BME280;42945;51.718;5.324;2023-02-10T02:35:39;103337.59;;;-1.73;100.00
57056;BME280;42945;51.718;5.324;2023-02-10T02:41:28;103598.25;;;-0.34;100.00
57056;BME280;42945;51.718;5.324;2023-02-10T02:53:53;103446.84;;;-1.23;100.00
57056;BME280;42945;51.718;5.324;2023-02-10T03:05:44;103493.44;;;-1.31;100.00
57056;BME280;42945;51.718;5.324;2023-02-10T03:11:32;103485.78;;;-1.26;100.00
57056;BME280;42945;51.718;5.324;2023-02-10T03:17:20;103518.81;;;-1.25;100.00
57056;BME280;42945;51.718;5.324;2023-02-10T03:23:08;103487.16;;;-1.37;100.00
57056;BME280;42945;51.718;5.324;2023-02-10T03:28:56;103489.75;;;-1.37;100.00
57056;BME280;42945;51.718;5.324;2023-02-10T03:34:43;103490.50;;;-1.40;100.00
57056;BME280;42945;51.718;5.324;2023-02-10T03:40:32;103432.09;;;-1.48;100.00
57056;BME280;42945;51.718;5.324;2023-02-10T03:46:24;103512.06;;;-1.44;100.00
57056;BME280;42945;51.718;5.324;2023-02-10T03:56:12;103463.72;;;-1.37;100.00
57056;BME280;42945;51.718;5.324;2023-02-10T04:02:01;103480.03;;;-1.42;100.00
57056;BME280;42945;51.718;5.324;2023-02-10T04:07:48;103495.31;;;-1.27;100.00
57056;BME280;42945;51.718;5.324;2023-02-10T04:13:37;103478.81;;;-1.27;100.00
57056;BME280;42945;51.718;5.324;2023-02-10T04:19:25;103477.34;;;-1.19;100.00
57056;BME280;42945;51.718;5.324;2023-02-10T04:25:12;103585.69;;;-0.73;100.00
57056;BME280;42945;51.718;5.324;2023-02-10T04:31:01;103529.50;;;-1.42;100.00
57056;BME280;42945;51.718;5.324;2023-02-10T04:36:50;103468.69;;;-1.44;100.00
57056;BME280;42945;51.718;5.324;2023-02-10T04:42:38;103441.31;;;-1.58;100.00
57056;BME280;42945;51.718;5.324;2023-02-10T04:48:27;103533.50;;;-1.51;100.00
57056;BME280;42945;51.718;5.324;2023-02-10T04:58:08;103494.19;;;-1.59;100.00
57056;BME280;42945;51.718;5.324;2023-02-10T05:03:56;103518.06;;;-1.47;100.00
57056;BME280;42945;51.718;5.324;2023-02-10T05:09:45;103521.50;;;-1.72;100.00
57056;BME280;42945;51.718;5.324;2023-02-10T05:15:32;103490.06;;;-1.78;100.00
57056;BME280;42945;51.718;5.324;2023-02-10T05:21:20;103491.47;;;-1.86;100.00
57056;BME280;42945;51.718;5.324;2023-02-10T05:27:07;103463.19;;;-1.77;100.00
57056;BME280;42945;51.718;5.324;2023-02-10T05:32:56;103506.19;;;-1.87;100.00
57056;BME280;42945;51.718;5.324;2023-02-10T05:38:43;103481.88;;;-1.65;100.00
57056;BME280;42945;51.718;5.324;2023-02-10T05:44:50;103507.31;;;-1.56;100.00
57056;BME280;42945;51.718;5.324;2023-02-10T05:50:39;103527.72;;;-1.67;100.00
57056;BME280;42945;51.718;5.324;2023-02-10T06:00:23;103629.81;;;-1.27;100.00
57056;BME280;42945;51.718;5.324;2023-02-10T06:06:10;103492.81;;;-1.73;100.00
57056;BME280;42945;51.718;5.324;2023-02-10T06:11:59;103463.16;;;-2.03;100.00
57056;BME280;42945;51.718;5.324;2023-02-10T06:17:49;103395.06;;;-2.39;100.00
57056;BME280;42945;51.718;5.324;2023-02-10T06:23:37;103505.38;;;-1.86;100.00
57056;BME280;42945;51.718;5.324;2023-02-10T06:29:26;103472.97;;;-1.94;100.00
57056;BME280;42945;51.718;5.324;2023-02-10T06:35:14;103430.16;;;-2.50;100.00
57056;BME280;42945;51.718;5.324;2023-02-10T06:41:03;103485.69;;;-2.02;100.00
57056;BME280;42945;51.718;5.324;2023-02-10T06:46:51;103518.19;;;-1.92;100.00
57056;BME280;42945;51.718;5.324;2023-02-10T06:52:39;103606.06;;;-1.83;100.00
57056;BME280;42945;51.718;5.324;2023-02-10T07:02:23;103420.38;;;-2.58;100.00
57056;BME280;42945;51.718;5.324;2023-02-10T07:08:11;103539.06;;;-1.89;100.00
57056;BME280;42945;51.718;5.324;2023-02-10T07:14:00;103576.66;;;-1.81;100.00
57056;BME280;42945;51.718;5.324;2023-02-10T07:19:47;103553.31;;;-1.79;100.00
57056;BME280;42945;51.718;5.324;2023-02-10T07:25:34;103297.13;;;-3.11;100.00
57056;BME280;42945;51.718;5.324;2023-02-10T07:31:23;103563.47;;;-1.63;100.00
57056;BME280;42945;51.718;5.324;2023-02-10T07:37:11;103546.50;;;-1.51;100.00
57056;BME280;42945;51.718;5.324;2023-02-10T07:43:00;103427.25;;;-2.13;100.00
57056;BME280;42945;51.718;5.324;2023-02-10T07:49:14;103413.97;;;-2.21;100.00
57056;BME280;42945;51.718;5.324;2023-02-10T07:55:03;103552.84;;;-1.45;100.00
57056;BME280;42945;51.718;5.324;2023-02-10T08:04:56;103465.09;;;-1.97;100.00
57056;BME280;42945;51.718;5.324;2023-02-10T08:10:45;103556.53;;;-1.14;100.00
57056;BME280;42945;51.718;5.324;2023-02-10T08:16:33;103613.97;;;-1.09;100.00
57056;BME280;42945;51.718;5.324;2023-02-10T08:22:22;103590.72;;;-1.05;100.00
57056;BME280;42945;51.718;5.324;2023-02-10T08:28:11;103366.97;;;-2.27;100.00
57056;BME280;42945;51.718;5.324;2023-02-10T08:33:59;103588.09;;;-0.79;100.00
57056;BME280;42945;51.718;5.324;2023-02-10T08:39:47;103568.28;;;-0.74;100.00
57056;BME280;42945;51.718;5.324;2023-02-10T08:45:34;103515.13;;;-0.79;100.00
57056;BME280;42945;51.718;5.324;2023-02-10T08:51:25;103570.69;;;-0.53;100.00
57056;BME280;42945;51.718;5.324;2023-02-10T08:57:14;103589.38;;;-0.39;100.00
57056;BME280;42945;51.718;5.324;2023-02-10T09:06:58;103465.44;;;-0.85;100.00
57056;BME280;42945;51.718;5.324;2023-02-10T09:12:45;103505.22;;;-0.62;100.00
57056;BME280;42945;51.718;5.324;2023-02-10T09:18:36;103496.66;;;-0.60;100.00
57056;BME280;42945;51.718;5.324;2023-02-10T09:24:23;103569.47;;;0.21;100.00
57056;BME280;42945;51.718;5.324;2023-02-10T09:30:11;103632.00;;;0.46;100.00
57056;BME280;42945;51.718;5.324;2023-02-10T09:36:16;103586.75;;;0.46;100.00
57056;BME280;42945;51.718;5.324;2023-02-10T09:48:21;103500.38;;;0.06;100.00
57056;BME280;42945;51.718;5.324;2023-02-10T09:54:13;103590.31;;;0.81;100.00
57056;BME280;42945;51.718;5.324;2023-02-10T10:00:05;103389.28;;;-0.16;100.00
57056;BME280;42945;51.718;5.324;2023-02-10T10:16:17;103621.69;;;1.48;100.00
57056;BME280;42945;51.718;5.324;2023-02-10T10:34:23;103627.34;;;2.03;100.00
57056;BME280;42945;51.718;5.324;2023-02-10T10:40:21;103674.19;;;2.68;100.00
57056;BME280;42945;51.718;5.324;2023-02-10T10:46:26;103598.19;;;2.27;100.00
57056;BME280;42945;51.718;5.324;2023-02-10T10:52:31;103561.03;;;2.43;100.00
57056;BME280;42945;51.718;5.324;2023-02-10T10:58:39;103604.38;;;2.73;100.00
57056;BME280;42945;51.718;5.324;2023-02-10T11:04:30;103539.47;;;3.05;100.00
57056;BME280;42945;51.718;5.324;2023-02-10T11:10:31;103534.91;;;2.96;100.00
57056;BME280;42945;51.718;5.324;2023-02-10T11:16:20;103545.00;;;3.24;100.00
57056;BME280;42945;51.718;5.324;2023-02-10T11:22:16;103549.91;;;3.59;100.00
57056;BME280;42945;51.718;5.324;2023-02-10T11:28:15;103424.53;;;2.78;100.00
57056;BME280;42945;51.718;5.324;2023-02-10T11:39:56;103468.16;;;3.95;100.00
57056;BME280;42945;51.718;5.324;2023-02-10T11:45:55;103531.44;;;4.13;100.00
57056;BME280;42945;51.718;5.324;2023-02-10T11:51:52;103467.63;;;4.24;100.00
57056;BME280;42945;51.718;5.324;2023-02-10T11:58:04;103346.03;;;3.50;100.00
57056;BME280;42945;51.718;5.324;2023-02-10T12:10:23;103285.13;;;3.83;100.00
57056;BME280;42945;51.718;5.324;2023-02-10T12:16:46;103423.16;;;4.41;100.00
57056;BME280;42945;51.718;5.324;2023-02-10T12:23:08;103496.78;;;4.47;100.00
57056;BME280;42945;51.718;5.324;2023-02-10T12:47:29;103414.91;;;5.05;100.00
57056;BME280;42945;51.718;5.324;2023-02-10T12:53:28;103372.16;;;5.46;100.00
57056;BME280;42945;51.718;5.324;2023-02-10T12:59:28;103457.19;;;5.29;100.00
57056;BME280;42945;51.718;5.324;2023-02-10T13:05:22;103419.41;;;5.20;100.00
57056;BME280;42945;51.718;5.324;2023-02-10T13:11:35;103422.09;;;5.32;100.00
57056;BME280;42945;51.718;5.324;2023-02-10T13:17:32;103497.16;;;6.28;100.00
57056;BME280;42945;51.718;5.324;2023-02-10T13:35:25;103408.28;;;5.85;100.00
57056;BME280;42945;51.718;5.324;2023-02-10T13:41:30;103382.84;;;5.84;100.00
57056;BME280;42945;51.718;5.324;2023-02-10T13:59:37;103374.06;;;5.93;100.00
57056;BME280;42945;51.718;5.324;2023-02-10T14:05:51;103328.38;;;5.76;100.00
57056;BME280;42945;51.718;5.324;2023-02-10T14:11:41;103779.50;;;5.68;100.00
57056;BME280;42945;51.718;5.324;2023-02-10T14:17:32;103351.06;;;5.43;100.00
57056;BME280;42945;51.718;5.324;2023-02-10T14:23:21;103307.25;;;5.45;100.00
57056;BME280;42945;51.718;5.324;2023-02-10T14:29:17;103380.97;;;5.54;100.00
57056;BME280;42945;51.718;5.324;2023-02-10T14:35:17;103334.31;;;5.21;100.00
57056;BME280;42945;51.718;5.324;2023-02-10T14:41:10;103345.63;;;5.03;100.00
57056;BME280;42945;51.718;5.324;2023-02-10T14:46:59;103256.63;;;4.25;100.00
57056;BME280;42945;51.718;5.324;2023-02-10T14:52:47;103314.97;;;5.11;100.00
57056;BME280;42945;51.718;5.324;2023-02-10T14:58:42;103313.09;;;4.88;100.00
57056;BME280;42945;51.718;5.324;2023-02-10T15:04:32;103324.56;;;5.01;100.00
57056;BME280;42945;51.718;5.324;2023-02-10T15:16:18;103309.72;;;5.06;100.00
57056;BME280;42945;51.718;5.324;2023-02-10T15:31:57;103337.75;;;5.06;100.00
57056;BME280;42945;51.718;5.324;2023-02-10T15:37:58;103253.16;;;4.29;100.00
57056;BME280;42945;51.718;5.324;2023-02-10T15:43:50;102975.69;;;2.91;100.00
57056;BME280;42945;51.718;5.324;2023-02-10T15:49:37;103342.03;;;4.87;100.00
57056;BME280;42945;51.718;5.324;2023-02-10T15:55:31;103299.91;;;4.78;100.00
57056;BME280;42945;51.718;5.324;2023-02-10T16:01:20;103290.22;;;4.70;100.00
57056;BME280;42945;51.718;5.324;2023-02-10T16:07:13;103309.47;;;4.71;100.00
57056;BME280;42945;51.718;5.324;2023-02-10T16:13:03;103245.00;;;3.95;100.00
57056;BME280;42945;51.718;5.324;2023-02-10T16:18:50;103554.13;;;6.00;100.00
57056;BME280;42945;51.718;5.324;2023-02-10T16:24:39;103250.31;;;4.03;100.00
57056;BME280;42945;51.718;5.324;2023-02-10T16:30:28;103316.41;;;4.57;100.00
57056;BME280;42945;51.718;5.324;2023-02-10T16:36:17;103311.97;;;4.46;100.00
57056;BME280;42945;51.718;5.324;2023-02-10T16:42:06;103322.50;;;4.52;100.00
57056;BME280;42945;51.718;5.324;2023-02-10T16:47:54;103247.19;;;4.53;100.00
57056;BME280;42945;51.718;5.324;2023-02-10T16:53:43;103402.22;;;4.50;100.00
57056;BME280;42945;51.718;5.324;2023-02-10T16:59:31;103339.06;;;4.44;100.00
57056;BME280;42945;51.718;5.324;2023-02-10T17:05:20;103317.19;;;4.45;100.00
57056;BME280;42945;51.718;5.324;2023-02-10T17:11:08;103305.75;;;4.35;100.00
57056;BME280;42945;51.718;5.324;2023-02-10T17:16:56;103300.47;;;4.30;100.00
57056;BME280;42945;51.718;5.324;2023-02-10T17:22:44;103300.44;;;4.29;100.00
57056;BME280;42945;51.718;5.324;2023-02-10T17:28:32;103353.00;;;4.32;100.00
57056;BME280;42945;51.718;5.324;2023-02-10T17:34:21;103261.34;;;3.66;100.00
57056;BME280;42945;51.718;5.324;2023-02-10T17:40:14;103345.88;;;4.20;100.00
57056;BME280;42945;51.718;5.324;2023-02-10T17:46:03;103359.16;;;4.32;100.00
57056;BME280;42945;51.718;5.324;2023-02-10T17:51:52;103341.53;;;4.22;100.00
57056;BME280;42945;51.718;5.324;2023-02-10T17:57:40;103408.00;;;4.17;100.00
57056;BME280;42945;51.718;5.324;2023-02-10T18:03:32;103341.50;;;4.18;100.00
57056;BME280;42945;51.718;5.324;2023-02-10T18:13:08;103488.31;;;4.77;100.00
57056;BME280;42945;51.718;5.324;2023-02-10T18:18:56;103071.69;;;2.85;100.00
57056;BME280;42945;51.718;5.324;2023-02-10T18:24:44;103492.75;;;4.81;100.00
57056;BME280;42945;51.718;5.324;2023-02-10T18:30:32;103380.16;;;4.32;100.00
57056;BME280;42945;51.718;5.324;2023-02-10T18:36:21;103324.84;;;4.16;100.00
57056;BME280;42945;51.718;5.324;2023-02-10T18:42:09;103381.03;;;4.33;100.00
57056;BME280;42945;51.718;5.324;2023-02-10T18:47:57;103307.47;;;4.36;100.00
57056;BME280;42945;51.718;5.324;2023-02-10T18:53:46;103322.31;;;4.25;100.00
57056;BME280;42945;51.718;5.324;2023-02-10T18:59:34;103160.72;;;3.64;100.00
57056;BME280;42945;51.718;5.324;2023-02-10T19:05:21;103241.72;;;4.21;100.00
57056;BME280;42945;51.718;5.324;2023-02-10T19:11:11;103266.28;;;4.27;100.00
57056;BME280;42945;51.718;5.324;2023-02-10T19:17:00;103302.13;;;4.21;100.00
57056;BME280;42945;51.718;5.324;2023-02-10T19:22:48;103193.06;;;3.60;100.00
57056;BME280;42945;51.718;5.324;2023-02-10T19:28:39;103390.22;;;4.86;100.00
57056;BME280;42945;51.718;5.324;2023-02-10T19:34:29;103394.66;;;4.96;100.00
57056;BME280;42945;51.718;5.324;2023-02-10T19:40:18;103466.59;;;5.00;100.00
57056;BME280;42945;51.718;5.324;2023-02-10T19:46:07;103281.19;;;4.31;100.00
57056;BME280;42945;51.718;5.324;2023-02-10T19:51:56;103322.44;;;4.43;100.00
57056;BME280;42945;51.718;5.324;2023-02-10T19:57:45;103399.94;;;4.98;100.00
57056;BME280;42945;51.718;5.324;2023-02-10T20:03:33;103501.22;;;5.61;100.00
57056;BME280;42945;51.718;5.324;2023-02-10T20:09:23;103295.28;;;4.38;100.00
57056;BME280;42945;51.718;5.324;2023-02-10T20:15:11;103329.47;;;4.47;100.00
57056;BME280;42945;51.718;5.324;2023-02-10T20:21:00;103289.94;;;4.32;100.00
57056;BME280;42945;51.718;5.324;2023-02-10T20:26:54;103181.03;;;3.87;100.00
57056;BME280;42945;51.718;5.324;2023-02-10T20:32:43;103312.84;;;4.48;100.00
57056;BME280;42945;51.718;5.324;2023-02-10T20:38:31;103290.09;;;4.50;100.00
57056;BME280;42945;51.718;5.324;2023-02-10T20:44:20;103210.75;;;3.78;100.00
57056;BME280;42945;51.718;5.324;2023-02-10T20:50:09;103248.00;;;4.47;100.00
57056;BME280;42945;51.718;5.324;2023-02-10T20:55:58;103218.25;;;4.47;100.00
57056;BME280;42945;51.718;5.324;2023-02-10T21:01:46;103428.91;;;5.04;100.00
57056;BME280;42945;51.718;5.324;2023-02-10T21:07:36;103263.84;;;4.55;100.00
57056;BME280;42945;51.718;5.324;2023-02-10T21:17:11;103287.47;;;4.53;100.00
57056;BME280;42945;51.718;5.324;2023-02-10T21:22:58;103169.72;;;3.92;100.00
57056;BME280;42945;51.718;5.324;2023-02-10T21:28:47;103263.88;;;4.60;100.00
57056;BME280;42945;51.718;5.324;2023-02-10T21:34:35;103200.34;;;3.95;100.00
57056;BME280;42945;51.718;5.324;2023-02-10T21:40:23;103288.41;;;4.62;100.00
57056;BME280;42945;51.718;5.324;2023-02-10T21:46:11;103319.97;;;4.62;100.00
57056;BME280;42945;51.718;5.324;2023-02-10T21:51:59;103159.28;;;4.02;100.00
57056;BME280;42945;51.718;5.324;2023-02-10T21:57:46;103335.84;;;4.77;100.00
57056;BME280;42945;51.718;5.324;2023-02-10T22:03:33;103146.06;;;3.88;100.00
57056;BME280;42945;51.718;5.324;2023-02-10T22:09:24;103288.53;;;4.80;100.00
57056;BME280;42945;51.718;5.324;2023-02-10T22:18:46;103293.69;;;4.62;100.00
57056;BME280;42945;51.718;5.324;2023-02-10T22:24:34;103305.13;;;4.71;100.00
57056;BME280;42945;51.718;5.324;2023-02-10T22:30:22;103285.81;;;4.68;100.00
57056;BME280;42945;51.718;5.324;2023-02-10T22:36:11;103295.50;;;4.72;100.00
57056;BME280;42945;51.718;5.324;2023-02-10T22:41:59;103318.22;;;4.67;100.00
57056;BME280;42945;51.718;5.324;2023-02-10T22:47:46;103287.63;;;4.73;100.00
57056;BME280;42945;51.718;5.324;2023-02-10T22:53:35;103282.31;;;4.66;100.00
57056;BME280;42945;51.718;5.324;2023-02-10T22:59:23;103315.66;;;4.74;100.00
57056;BME280;42945;51.718;5.324;2023-02-10T23:05:10;103295.56;;;4.84;100.00
57056;BME280;42945;51.718;5.324;2023-02-10T23:10:57;103314.75;;;4.71;100.00
57056;BME280;42945;51.718;5.324;2023-02-10T23:16:53;103175.03;;;4.00;100.00
57056;BME280;42945;51.718;5.324;2023-02-10T23:22:48;103302.50;;;4.74;100.00
57056;BME280;42945;51.718;5.324;2023-02-10T23:28:38;103229.69;;;4.61;100.00
57056;BME280;42945;51.718;5.324;2023-02-10T23:34:27;103226.19;;;4.59;100.00
57056;BME280;42945;51.718;5.324;2023-02-10T23:40:15;103306.88;;;4.69;100.00
57056;BME280;42945;51.718;5.324;2023-02-10T23:46:05;103107.63;;;3.96;100.00
57056;BME280;42945;51.718;5.324;2023-02-10T23:51:54;103287.50;;;4.57;100.00
57056;BME280;42945;51.718;5.324;2023-02-10T23:57:42;103132.06;;;3.93;100.00
